Terminal Aerodrome Forecast
Issued by NWS

Home | Current Version | Previous Version | Text Only | Print | Product List | Glossary On
Versions: 1 2 3 4 5 6 7 8 9 10 11 12 13 14 15 16 17 18 19 20 21 22 23 24 25 26 27 28 29 30 31 32 33 34 35 36 37
000
FTUS44 KLIX 281739
TAFHUM
TAF
KHUM 281739Z 2818/2918 16006KT P6SM SCT035 BKN060
     FM290000 16007KT P6SM BKN120
     FM291000 VRB03KT P6SM SCT250
     FM291500 13004KT P6SM BKN200=

USA.gov is the U.S. government's official web portal to all federal, state and local government web resources and services.